Time;durP1;ratioP1;P1;durP2;ratioP2;P2;SDS_P1;SDS_P2;PMS_P1;PMS_P2;Temp;Humidity;BMP_temperature;BMP_pressure;BME280_temperature;BME280_humidity;BME280_pressure;Samples;Min_cycle;Max_cycle;Signal;HPM_P1;HPM_P2
2021/05/04 00:00:08;;;;;;;6.40;4.63;;;3.00;99.90;;;;;;5071831;28;20440;-40
2021/05/04 00:02:34;;;;;;;5.97;4.80;;;3.10;99.90;;;;;;5071353;28;20025;-40
2021/05/04 00:04:59;;;;;;;7.80;4.72;;;3.00;99.90;;;;;;5071735;28;20468;-40
2021/05/04 00:07:25;;;;;;;6.07;4.55;;;3.10;99.90;;;;;;5071727;28;20077;-41
2021/05/04 00:09:50;;;;;;;5.40;4.25;;;3.10;99.90;;;;;;5071377;28;20033;-41
2021/05/04 00:12:16;;;;;;;5.68;4.03;;;3.10;99.90;;;;;;5070570;28;20024;-40
2021/05/04 00:14:41;;;;;;;5.57;3.92;;;3.20;99.90;;;;;;5071566;28;20029;-40
2021/05/04 00:17:07;;;;;;;6.05;4.45;;;3.20;99.90;;;;;;5070974;28;20033;-41
2021/05/04 00:19:33;;;;;;;7.85;4.75;;;3.20;99.90;;;;;;5071195;28;20196;-48
2021/05/04 00:21:58;;;;;;;6.07;4.70;;;3.30;99.90;;;;;;5071470;28;20035;-40
2021/05/04 00:24:24;;;;;;;6.50;4.28;;;3.30;99.90;;;;;;5071442;28;20029;-41
2021/05/04 00:26:49;;;;;;;6.47;4.70;;;3.30;99.90;;;;;;5070987;28;20468;-41
2021/05/04 00:29:15;;;;;;;6.20;4.45;;;3.40;99.90;;;;;;5070862;28;20078;-42
2021/05/04 00:31:40;;;;;;;6.78;4.03;;;3.50;99.90;;;;;;5071341;28;20075;-40
2021/05/04 00:34:06;;;;;;;8.40;4.93;;;3.50;99.90;;;;;;5053409;28;20365;-40
2021/05/04 00:36:31;;;;;;;6.00;4.20;;;3.60;99.90;;;;;;5071329;28;20025;-41
2021/05/04 00:38:57;;;;;;;5.50;3.80;;;3.70;99.90;;;;;;5071418;28;20064;-40
2021/05/04 00:41:23;;;;;;;5.43;3.47;;;3.70;99.90;;;;;;5071158;28;20032;-40
2021/05/04 00:43:49;;;;;;;4.60;3.50;;;3.80;99.90;;;;;;5070302;28;20517;-41
2021/05/04 00:46:16;;;;;;;5.78;4.28;;;3.80;99.90;;;;;;5071269;28;20413;-41
2021/05/04 00:48:41;;;;;;;5.45;4.15;;;3.80;99.90;;;;;;5066848;28;20123;-40
2021/05/04 00:51:07;;;;;;;6.45;4.47;;;3.90;99.90;;;;;;5068008;28;20107;-42
2021/05/04 00:53:33;;;;;;;5.85;4.05;;;3.90;99.90;;;;;;5073631;28;20024;-40
2021/05/04 00:55:59;;;;;;;5.70;4.20;;;4.00;99.90;;;;;;5069312;28;20028;-41
2021/05/04 00:58:25;;;;;;;3.95;3.35;;;4.00;99.90;;;;;;5067719;28;20021;-40
2021/05/04 01:00:51;;;;;;;5.22;3.38;;;4.00;99.90;;;;;;5071110;28;20487;-41
2021/05/04 01:03:17;;;;;;;4.13;3.33;;;4.00;99.90;;;;;;5071116;28;20038;-41
2021/05/04 01:05:43;;;;;;;5.50;3.40;;;4.10;99.90;;;;;;5071182;28;20122;-40
2021/05/04 01:08:08;;;;;;;3.85;3.28;;;4.10;99.90;;;;;;5071011;28;20033;-40
2021/05/04 01:10:34;;;;;;;5.20;3.60;;;4.10;99.90;;;;;;5070941;28;20082;-40
2021/05/04 01:13:00;;;;;;;6.07;3.63;;;4.20;99.90;;;;;;5069944;28;20039;-41
2021/05/04 01:15:26;;;;;;;10.07;4.03;;;4.20;99.90;;;;;;5071292;28;20036;-41
2021/05/04 01:17:52;;;;;;;3.42;2.97;;;4.30;99.90;;;;;;5071855;28;20024;-41
2021/05/04 01:20:18;;;;;;;6.25;3.60;;;4.30;99.90;;;;;;5071963;28;20082;-43
2021/05/04 01:22:44;;;;;;;9.93;3.25;;;4.30;99.90;;;;;;5071731;28;20099;-41
2021/05/04 01:25:09;;;;;;;4.78;3.50;;;4.30;99.90;;;;;;5071827;28;20116;-41
2021/05/04 01:27:35;;;;;;;5.25;3.17;;;4.40;99.90;;;;;;5070724;28;20031;-41
2021/05/04 01:30:01;;;;;;;4.40;3.53;;;4.50;99.90;;;;;;5074301;28;20104;-40
2021/05/04 01:32:27;;;;;;;3.75;3.10;;;4.50;99.90;;;;;;5075375;28;20027;-40
2021/05/04 01:34:52;;;;;;;4.55;3.10;;;4.50;99.90;;;;;;5075451;28;20372;-42
2021/05/04 01:37:18;;;;;;;7.80;3.33;;;4.50;99.90;;;;;;5075312;28;20067;-40
2021/05/04 01:39:49;;;;;;;4.20;2.92;;;4.60;99.90;;;;;;5057240;28;20426;-41
2021/05/04 01:42:16;;;;;;;5.68;3.83;;;4.60;99.90;;;;;;5074200;28;20483;-40
2021/05/04 01:44:43;;;;;;;5.85;3.17;;;4.60;99.90;;;;;;5075296;28;20036;-40
2021/05/04 01:47:08;;;;;;;3.58;2.78;;;4.70;99.90;;;;;;5074900;28;20044;-40
2021/05/04 01:49:34;;;;;;;3.35;2.50;;;4.60;99.90;;;;;;5075123;28;20387;-41
2021/05/04 01:52:01;;;;;;;3.53;3.05;;;4.70;99.90;;;;;;5070472;28;20065;-40
2021/05/04 01:54:27;;;;;;;5.45;3.72;;;4.70;99.90;;;;;;5095199;28;20031;-40
2021/05/04 01:56:56;;;;;;;7.88;4.53;;;4.70;99.90;;;;;;5094050;28;20020;-40
2021/05/04 01:59:23;;;;;;;5.47;4.20;;;4.80;99.90;;;;;;5095253;28;20026;-40
2021/05/04 02:01:49;;;;;;;7.35;4.50;;;4.80;99.90;;;;;;5094897;28;20107;-41
2021/05/04 02:04:14;;;;;;;6.82;4.03;;;4.90;99.90;;;;;;5095234;28;20518;-41
2021/05/04 02:06:40;;;;;;;5.53;3.88;;;5.00;99.90;;;;;;5095027;28;20032;-40
2021/05/04 02:09:08;;;;;;;5.05;4.15;;;5.00;99.90;;;;;;5094930;28;20421;-40
2021/05/04 02:11:33;;;;;;;6.50;3.97;;;5.00;99.90;;;;;;5094649;28;20028;-40
2021/05/04 02:13:59;;;;;;;7.78;4.32;;;5.10;99.90;;;;;;5094026;28;20012;-40
2021/05/04 02:16:27;;;;;;;5.30;3.75;;;5.10;99.90;;;;;;5095065;28;20031;-41
2021/05/04 02:18:52;;;;;;;5.88;3.88;;;5.10;99.90;;;;;;5094847;28;20024;-40
2021/05/04 02:21:18;;;;;;;6.57;3.63;;;5.10;99.90;;;;;;5094795;28;20020;-40
2021/05/04 02:23:44;;;;;;;5.97;4.60;;;5.10;99.90;;;;;;5094662;28;20099;-40
2021/05/04 02:26:11;;;;;;;5.43;4.03;;;5.10;99.90;;;;;;5094719;28;20175;-40
2021/05/04 02:28:37;;;;;;;6.35;4.07;;;5.10;99.90;;;;;;5093590;28;20043;-42
2021/05/04 02:31:02;;;;;;;5.53;3.90;;;5.10;99.90;;;;;;5094640;28;20020;-40
2021/05/04 02:33:29;;;;;;;7.70;4.82;;;5.10;99.90;;;;;;5094500;28;20028;-41
2021/05/04 02:35:56;;;;;;;6.05;3.75;;;5.10;99.90;;;;;;5094446;28;20506;-40
2021/05/04 02:38:22;;;;;;;6.68;4.00;;;5.20;99.90;;;;;;5094355;28;20035;-40
2021/05/04 02:40:47;;;;;;;7.78;3.10;;;5.20;99.90;;;;;;5093760;28;20024;-41
2021/05/04 02:43:13;;;;;;;7.68;4.40;;;5.20;99.90;;;;;;5093387;28;20032;-40
2021/05/04 02:45:38;;;;;;;9.13;5.03;;;5.20;99.90;;;;;;5094372;28;20032;-43
2021/05/04 02:48:04;;;;;;;6.30;4.50;;;5.30;99.90;;;;;;5094048;28;20114;-40
2021/05/04 02:50:29;;;;;;;6.75;4.53;;;5.40;99.90;;;;;;5075314;28;20036;-43
2021/05/04 02:52:55;;;;;;;5.47;4.25;;;5.40;99.90;;;;;;5093931;28;20527;-41
2021/05/04 02:55:22;;;;;;;5.30;3.92;;;5.40;99.90;;;;;;5094286;28;20024;-41
2021/05/04 02:57:48;;;;;;;11.65;4.75;;;5.40;99.90;;;;;;5093004;28;20052;-40
2021/05/04 03:00:14;;;;;;;7.00;5.15;;;5.40;99.90;;;;;;5094118;28;20085;-41
2021/05/04 03:02:40;;;;;;;6.68;4.70;;;5.50;99.90;;;;;;5094013;28;20520;-40
2021/05/04 03:05:06;;;;;;;10.38;6.00;;;5.50;99.90;;;;;;5093974;28;20059;-41
2021/05/04 03:07:31;;;;;;;8.63;5.53;;;5.50;99.90;;;;;;5093889;28;20026;-41
2021/05/04 03:09:56;;;;;;;5.82;4.78;;;5.60;99.90;;;;;;5093708;28;20386;-41
2021/05/04 03:12:22;;;;;;;5.80;4.63;;;5.60;99.90;;;;;;5092866;28;20023;-41
2021/05/04 03:14:47;;;;;;;8.43;5.78;;;5.60;99.90;;;;;;5093730;28;20199;-40
2021/05/04 03:17:13;;;;;;;7.20;4.57;;;5.60;99.90;;;;;;5093681;28;20024;-41
2021/05/04 03:19:38;;;;;;;6.45;4.35;;;5.60;99.90;;;;;;5093814;28;20028;-40
2021/05/04 03:22:04;;;;;;;9.55;4.60;;;5.60;99.90;;;;;;5093328;28;20111;-40
2021/05/04 03:24:29;;;;;;;6.80;5.45;;;5.60;99.90;;;;;;5093736;28;20034;-40
2021/05/04 03:26:55;;;;;;;6.53;4.53;;;5.60;99.90;;;;;;5092569;28;20054;-40
2021/05/04 03:29:20;;;;;;;7.07;6.07;;;5.60;99.90;;;;;;5093304;28;20024;-40
2021/05/04 03:31:46;;;;;;;7.32;5.15;;;5.60;99.90;;;;;;5093438;28;20074;-41
2021/05/04 03:34:11;;;;;;;8.45;4.63;;;5.60;99.90;;;;;;5093323;28;20031;-40
2021/05/04 03:36:37;;;;;;;9.70;5.13;;;5.60;99.90;;;;;;5093311;28;20082;-41
2021/05/04 03:39:03;;;;;;;6.32;4.35;;;5.60;99.90;;;;;;5075121;28;20035;-40
2021/05/04 03:41:29;;;;;;;10.55;4.78;;;5.60;99.90;;;;;;5093389;28;20076;-40
2021/05/04 03:43:54;;;;;;;5.85;5.03;;;5.60;99.90;;;;;;5092041;28;20111;-41
2021/05/04 03:46:20;;;;;;;8.02;5.15;;;5.60;99.90;;;;;;5093177;28;20374;-41
2021/05/04 03:48:45;;;;;;;8.52;5.25;;;5.60;99.90;;;;;;5088043;28;20032;-41
2021/05/04 03:51:11;;;;;;;9.20;5.43;;;5.60;99.90;;;;;;5079198;28;20024;-40
2021/05/04 03:53:37;;;;;;;6.55;5.13;;;5.60;99.90;;;;;;5092229;28;20115;-41
2021/05/04 03:56:04;;;;;;;5.28;4.57;;;5.70;99.90;;;;;;5092940;28;20024;-41
2021/05/04 03:58:30;;;;;;;6.97;5.90;;;5.70;99.90;;;;;;5092105;28;20031;-40
2021/05/04 04:00:56;;;;;;;7.20;4.80;;;5.70;99.90;;;;;;5092858;28;20036;-40
2021/05/04 04:03:21;;;;;;;7.55;5.00;;;5.70;99.90;;;;;;5092752;28;20394;-40
2021/05/04 04:05:47;;;;;;;8.85;6.20;;;5.80;99.90;;;;;;5092825;28;20027;-40
2021/05/04 04:08:12;;;;;;;7.50;5.15;;;5.80;99.90;;;;;;5092719;28;20498;-40
2021/05/04 04:10:39;;;;;;;8.43;5.75;;;5.90;99.90;;;;;;5074723;28;20020;-40
2021/05/04 04:13:04;;;;;;;9.70;6.68;;;5.90;99.90;;;;;;5073871;28;20031;-42
2021/05/04 04:15:30;;;;;;;9.05;5.75;;;6.10;99.90;;;;;;5092627;28;20024;-40
2021/05/04 04:17:55;;;;;;;11.68;7.05;;;6.10;99.90;;;;;;5092694;28;20020;-41
2021/05/04 04:20:21;;;;;;;19.73;6.30;;;6.20;98.90;;;;;;5092667;28;20215;-40
2021/05/04 04:22:46;;;;;;;9.10;5.45;;;6.30;98.40;;;;;;5092703;28;20056;-40
2021/05/04 04:25:12;;;;;;;8.77;5.70;;;6.40;97.80;;;;;;5092607;28;20336;-40
2021/05/04 04:27:38;;;;;;;8.00;5.60;;;6.40;97.00;;;;;;5091876;28;20039;-40
2021/05/04 04:30:04;;;;;;;5.95;3.78;;;6.50;97.20;;;;;;5074279;28;20028;-40
2021/05/04 04:32:29;;;;;;;10.73;4.50;;;6.50;97.00;;;;;;5092525;28;20022;-41
2021/05/04 04:34:55;;;;;;;7.18;4.82;;;6.60;96.90;;;;;;5092455;28;20024;-43
2021/05/04 04:37:21;;;;;;;10.70;5.07;;;6.70;96.10;;;;;;5092622;28;20031;-42
2021/05/04 04:39:47;;;;;;;6.25;3.92;;;6.80;95.80;;;;;;5092555;28;20031;-40
2021/05/04 04:42:12;;;;;;;10.35;5.80;;;6.80;95.70;;;;;;5091374;28;20089;-41
2021/05/04 04:44:38;;;;;;;8.93;5.72;;;7.00;94.40;;;;;;5092534;28;20083;-40
2021/05/04 04:47:06;;;;;;;10.85;5.70;;;7.10;93.60;;;;;;5092183;28;20131;-40
2021/05/04 04:49:32;;;;;;;7.97;4.43;;;7.30;92.80;;;;;;5080625;28;20060;-40
2021/05/04 04:51:57;;;;;;;8.63;5.13;;;7.40;92.50;;;;;;5085001;28;20055;-40
2021/05/04 04:54:23;;;;;;;5.55;4.20;;;7.60;91.60;;;;;;5092298;28;20027;-40
2021/05/04 04:56:48;;;;;;;7.10;4.82;;;7.70;91.10;;;;;;5091518;28;20027;-40
2021/05/04 04:59:13;;;;;;;6.68;4.65;;;7.80;90.80;;;;;;5092184;28;20028;-40
2021/05/04 05:01:39;;;;;;;8.63;5.38;;;7.80;90.30;;;;;;5092126;28;20024;-42
2021/05/04 05:04:05;;;;;;;8.68;5.75;;;7.90;88.70;;;;;;5093344;28;20060;-43
2021/05/04 05:06:31;;;;;;;10.60;5.88;;;7.90;87.30;;;;;;5096301;28;20020;-40
2021/05/04 05:08:57;;;;;;;10.98;5.13;;;7.90;85.70;;;;;;5096185;28;20454;-43
2021/05/04 05:11:22;;;;;;;11.63;4.93;;;8.00;85.20;;;;;;5096255;28;20048;-40
2021/05/04 05:13:48;;;;;;;8.30;4.78;;;8.00;84.10;;;;;;5095157;28;20039;-40
2021/05/04 05:16:15;;;;;;;9.55;5.10;;;8.00;84.40;;;;;;5096014;28;20082;-40
2021/05/04 05:18:41;;;;;;;7.22;4.78;;;8.10;84.30;;;;;;5068923;28;20491;-42
2021/05/04 05:21:09;;;;;;;6.72;4.45;;;8.10;83.40;;;;;;5070025;28;20650;-41
2021/05/04 05:23:35;;;;;;;6.28;4.65;;;8.20;82.30;;;;;;5075498;28;20025;-41
2021/05/04 05:26:01;;;;;;;7.50;4.57;;;8.20;82.10;;;;;;5075501;28;20027;-41
2021/05/04 05:28:27;;;;;;;17.65;5.10;;;8.20;83.10;;;;;;5074459;28;20490;-41
2021/05/04 05:30:53;;;;;;;6.22;4.35;;;8.10;81.40;;;;;;5087739;28;20036;-41
2021/05/04 05:33:22;;;;;;;5.97;4.13;;;8.20;81.20;;;;;;5095067;28;20526;-41
2021/05/04 05:35:48;;;;;;;6.65;4.25;;;8.20;81.60;;;;;;5077628;28;20022;-41
2021/05/04 05:38:14;;;;;;;4.20;3.40;;;8.20;81.60;;;;;;5095636;28;20107;-41
2021/05/04 05:40:39;;;;;;;8.45;4.43;;;8.20;82.00;;;;;;5095634;28;20458;-41
2021/05/04 05:43:05;;;;;;;6.63;4.55;;;8.20;80.90;;;;;;5094520;28;20028;-42
2021/05/04 05:45:31;;;;;;;6.80;4.20;;;8.30;81.30;;;;;;5095562;28;20024;-41
2021/05/04 05:47:57;;;;;;;7.93;4.72;;;8.30;80.50;;;;;;5095179;28;20052;-41
2021/05/04 05:50:22;;;;;;;8.55;4.65;;;8.40;79.70;;;;;;5076675;28;20033;-41
2021/05/04 05:52:48;;;;;;;6.80;4.50;;;8.40;79.80;;;;;;5076966;28;20053;-41
2021/05/04 05:55:14;;;;;;;6.45;4.47;;;8.40;79.80;;;;;;5090262;28;20031;-42
2021/05/04 05:57:39;;;;;;;12.35;5.65;;;8.50;80.20;;;;;;5104257;22;20028;-41
2021/05/04 06:00:06;;;;;;;8.32;4.10;;;8.50;79.60;;;;;;5074671;28;20024;-41
2021/05/04 06:02:32;;;;;;;4.97;3.70;;;8.60;79.50;;;;;;5074441;28;20432;-42
2021/05/04 06:04:57;;;;;;;10.75;5.03;;;8.70;79.40;;;;;;5073885;28;20071;-42
2021/05/04 06:07:23;;;;;;;7.65;5.00;;;8.80;79.80;;;;;;5073262;28;20021;-41
2021/05/04 06:09:48;;;;;;;9.23;5.30;;;8.90;78.10;;;;;;5074166;28;20039;-40
2021/05/04 06:12:14;;;;;;;7.22;5.07;;;9.20;77.80;;;;;;5073306;28;20020;-40
2021/05/04 06:14:39;;;;;;;6.38;4.07;;;9.50;76.30;;;;;;5060030;28;20419;-41
2021/05/04 06:17:05;;;;;;;9.27;5.38;;;10.00;75.70;;;;;;5053509;28;20099;-37
2021/05/04 06:19:30;;;;;;;13.15;5.35;;;10.50;72.80;;;;;;5054348;28;20029;-37
2021/05/04 06:21:56;;;;;;;6.75;4.72;;;11.00;70.70;;;;;;5054410;28;20376;-37
2021/05/04 06:24:21;;;;;;;7.50;5.18;;;11.40;70.00;;;;;;5054400;28;20025;-37
2021/05/04 06:26:47;;;;;;;7.70;4.85;;;11.70;68.00;;;;;;5066445;28;20541;-37
2021/05/04 06:29:13;;;;;;;9.85;4.57;;;11.70;67.90;;;;;;5056173;28;20115;-37
2021/05/04 06:31:38;;;;;;;6.28;4.07;;;12.30;67.90;;;;;;5054150;28;20017;-37
2021/05/04 06:34:06;;;;;;;7.90;3.90;;;13.70;66.50;;;;;;5053809;28;20349;-37
2021/05/04 06:36:32;;;;;;;8.05;4.18;;;15.00;63.90;;;;;;5054294;28;20397;-37
2021/05/04 06:38:57;;;;;;;8.07;4.78;;;15.70;59.90;;;;;;5054184;28;20063;-37
2021/05/04 06:41:23;;;;;;;6.68;3.88;;;16.20;57.50;;;;;;5053920;28;20057;-37
2021/05/04 06:43:50;;;;;;;5.00;2.97;;;16.60;57.10;;;;;;5053134;28;20039;-37
2021/05/04 06:46:16;;;;;;;5.90;4.25;;;16.80;56.60;;;;;;5053676;28;20031;-35
2021/05/04 06:48:41;;;;;;;4.28;2.75;;;17.20;55.20;;;;;;5057912;28;20418;-35
2021/05/04 06:51:07;;;;;;;5.28;4.15;;;17.40;56.10;;;;;;5073703;28;20016;-35
2021/05/04 06:53:32;;;;;;;4.93;3.75;;;17.40;53.40;;;;;;5073759;28;20380;-35
2021/05/04 06:55:58;;;;;;;5.47;3.97;;;17.50;53.50;;;;;;5073683;28;20475;-35
2021/05/04 06:58:23;;;;;;;7.63;4.82;;;17.70;54.70;;;;;;5072666;28;20044;-35
2021/05/04 07:00:49;;;;;;;7.32;4.25;;;17.70;52.50;;;;;;5073730;28;20028;-36
2021/05/04 07:03:14;;;;;;;11.68;4.22;;;17.80;52.30;;;;;;5073143;28;20024;-35
2021/05/04 07:05:40;;;;;;;9.52;4.32;;;18.10;51.70;;;;;;5073469;28;20039;-35
2021/05/04 07:08:05;;;;;;;6.82;3.22;;;17.80;52.00;;;;;;5073608;28;20035;-35
2021/05/04 07:10:31;;;;;;;5.90;3.78;;;17.80;52.50;;;;;;5073149;28;20035;-35
2021/05/04 07:12:58;;;;;;;4.78;3.28;;;17.40;51.50;;;;;;5072571;28;20398;-35
2021/05/04 07:15:24;;;;;;;3.90;2.50;;;16.90;52.70;;;;;;5072985;28;20025;-35
2021/05/04 07:17:49;;;;;;;6.88;3.72;;;16.80;54.40;;;;;;5137182;22;20026;-37
2021/05/04 07:20:20;;;;;;;5.53;3.30;;;16.90;54.20;;;;;;5072682;28;20047;-35
2021/05/04 07:22:47;;;;;;;4.57;3.60;;;16.80;53.20;;;;;;5073282;28;20028;-38
2021/05/04 07:25:13;;;;;;;4.38;2.83;;;16.60;53.40;;;;;;5072935;28;20035;-38
2021/05/04 07:27:39;;;;;;;4.50;3.50;;;16.50;54.60;;;;;;5071965;28;20469;-37
2021/05/04 07:30:05;;;;;;;8.43;3.75;;;16.40;54.20;;;;;;5072733;28;20480;-38
2021/05/04 07:32:31;;;;;;;4.65;3.40;;;16.10;53.90;;;;;;5072740;28;20068;-36
2021/05/04 07:34:57;;;;;;;5.40;2.83;;;15.70;54.70;;;;;;5072776;28;20063;-36
2021/05/04 07:37:22;;;;;;;5.30;3.10;;;15.30;55.60;;;;;;5072755;28;20025;-36
2021/05/04 07:39:48;;;;;;;5.82;3.38;;;15.00;56.60;;;;;;5072757;28;20388;-36
2021/05/04 07:42:13;;;;;;;6.63;3.47;;;15.00;57.20;;;;;;5071769;28;20102;-36
2021/05/04 07:44:39;;;;;;;4.32;3.28;;;14.90;57.10;;;;;;5054731;28;20033;-37
2021/05/04 07:47:05;;;;;;;4.07;2.92;;;14.80;57.40;;;;;;5072600;28;20033;-37
2021/05/04 07:49:34;;;;;;;3.40;2.70;;;14.70;58.10;;;;;;5072362;28;20031;-36
2021/05/04 07:52:01;;;;;;;6.18;3.50;;;14.70;58.60;;;;;;5085871;28;20047;-37
2021/05/04 07:54:26;;;;;;;4.28;2.90;;;14.70;58.20;;;;;;5092795;28;20375;-37
2021/05/04 07:56:52;;;;;;;3.58;2.72;;;14.70;58.30;;;;;;5091757;28;20024;-37
2021/05/04 07:59:18;;;;;;;4.88;3.58;;;14.50;58.10;;;;;;5092667;28;20103;-36
2021/05/04 08:01:43;;;;;;;3.08;2.70;;;14.30;58.80;;;;;;5092372;28;20028;-36
2021/05/04 08:04:10;;;;;;;4.60;3.17;;;14.20;59.20;;;;;;5085616;28;20024;-36
2021/05/04 08:06:36;;;;;;;3.80;2.65;;;14.20;58.90;;;;;;5092416;28;20036;-37
2021/05/04 08:09:02;;;;;;;7.95;3.67;;;14.20;59.10;;;;;;5092466;28;20073;-36
2021/05/04 08:11:27;;;;;;;4.65;3.00;;;14.10;58.40;;;;;;5092279;28;20219;-37
2021/05/04 08:13:53;;;;;;;3.45;2.10;;;14.10;59.10;;;;;;5091591;28;20375;-37
2021/05/04 08:16:19;;;;;;;4.82;2.97;;;14.10;59.90;;;;;;5092313;28;20020;-36
2021/05/04 08:18:47;;;;;;;3.60;2.60;;;14.00;61.10;;;;;;5092483;28;20550;-36
2021/05/04 08:21:13;;;;;;;3.72;2.70;;;13.80;62.80;;;;;;5092069;28;20047;-37
2021/05/04 08:23:39;;;;;;;4.13;2.70;;;13.50;64.60;;;;;;5092238;28;20032;-36
2021/05/04 08:26:04;;;;;;;5.03;2.78;;;13.20;67.00;;;;;;5092387;28;20383;-37
2021/05/04 08:28:30;;;;;;;6.88;3.13;;;13.00;69.30;;;;;;5091066;28;20349;-36
2021/05/04 08:30:55;;;;;;;3.42;3.05;;;12.80;70.80;;;;;;5091951;28;20040;-37
2021/05/04 08:33:21;;;;;;;9.85;4.38;;;12.50;71.80;;;;;;5092125;28;20365;-37
2021/05/04 08:35:47;;;;;;;3.00;2.50;;;12.30;73.80;;;;;;5092101;28;20190;-36
2021/05/04 08:38:13;;;;;;;5.03;2.85;;;12.20;74.60;;;;;;5092470;28;20528;-36
2021/05/04 08:40:39;;;;;;;7.45;3.22;;;12.00;75.50;;;;;;5096061;28;20021;-36
2021/05/04 08:43:05;;;;;;;4.60;3.58;;;11.90;77.00;;;;;;5095449;28;20364;-36
2021/05/04 08:45:32;;;;;;;3.13;2.83;;;11.90;77.10;;;;;;5096026;28;20036;-36
2021/05/04 08:47:58;;;;;;;7.25;4.13;;;12.10;77.40;;;;;;5096371;28;20452;-36
2021/05/04 08:50:24;;;;;;;6.40;3.50;;;12.10;77.10;;;;;;5077104;28;20103;-36
2021/05/04 08:52:51;;;;;;;5.15;3.55;;;12.20;77.10;;;;;;5055984;28;20031;-36
2021/05/04 08:55:17;;;;;;;3.22;2.63;;;12.40;76.50;;;;;;5055912;28;20040;-36
2021/05/04 08:57:42;;;;;;;5.70;3.75;;;12.50;75.80;;;;;;5054584;28;20021;-37
2021/05/04 09:00:13;;;;;;;7.63;3.17;;;12.70;74.30;;;;;;5055774;28;20465;-37
2021/05/04 09:03:11;;;;;;;3.88;2.80;;;12.70;74.80;;;;;;5055522;28;20048;-36
2021/05/04 09:05:42;;;;;;;3.92;2.88;;;12.80;74.10;;;;;;5049961;28;20411;-36
2021/05/04 09:08:42;;;;;;;4.63;3.63;;;12.70;74.30;;;;;;5055668;28;20033;-36
2021/05/04 09:19:18;;;;;;;5.13;2.78;;;12.80;74.20;;;;;;5055385;28;20455;-36
2021/05/04 09:21:47;;;;;;;3.90;3.05;;;13.00;73.90;;;;;;5055094;28;20480;-36
2021/05/04 09:24:41;;;;;;;5.30;3.00;;;13.30;73.50;;;;;;5055491;28;20032;-36
2021/05/04 09:27:08;;;;;;;3.67;3.20;;;13.40;73.50;;;;;;5054133;28;20061;-37
2021/05/04 09:29:36;;;;;;;4.05;3.28;;;13.50;72.50;;;;;;5055018;28;20029;-37
2021/05/04 09:32:22;;;;;;;5.55;3.40;;;13.70;71.60;;;;;;5055171;28;20387;-36
2021/05/04 09:34:56;;;;;;;6.43;3.72;;;13.90;71.20;;;;;;5055061;28;20032;-37
2021/05/04 09:37:38;;;;;;;5.38;3.38;;;14.10;70.10;;;;;;5054887;28;20036;-36
2021/05/04 09:40:23;;;;;;;5.40;3.70;;;14.40;70.30;;;;;;5055253;28;20027;-36
2021/05/04 09:43:12;;;;;;;4.93;3.03;;;14.50;69.10;;;;;;5053894;28;20512;-37
2021/05/04 09:45:40;;;;;;;6.88;3.70;;;14.60;68.90;;;;;;5054748;28;20049;-37
2021/05/04 09:48:20;;;;;;;5.45;2.70;;;14.60;68.00;;;;;;5054849;28;20031;-36
2021/05/04 09:56:31;;;;;;;4.93;2.53;;;15.00;66.20;;;;;;5094845;28;20489;-36
2021/05/04 09:58:56;;;;;;;5.97;2.40;;;15.00;66.70;;;;;;5094106;28;20464;-37
2021/05/04 10:01:22;;;;;;;4.80;2.75;;;15.00;66.30;;;;;;5094875;28;20031;-36
2021/05/04 10:03:49;;;;;;;3.40;2.30;;;15.10;65.90;;;;;;5094810;28;20043;-37
2021/05/04 10:06:17;;;;;;;2.95;2.60;;;15.60;65.60;;;;;;5094876;28;20032;-36
2021/05/04 10:08:44;;;;;;;4.63;2.20;;;15.90;63.70;;;;;;5076182;28;20057;-36
2021/05/04 10:11:11;;;;;;;2.88;2.22;;;16.10;63.30;;;;;;5094543;28;20020;-36
2021/05/04 10:13:38;;;;;;;2.83;1.90;;;16.30;62.60;;;;;;5093607;28;20069;-36
2021/05/04 10:16:05;;;;;;;5.13;2.10;;;16.40;62.30;;;;;;5094586;28;20020;-36
2021/05/04 10:18:32;;;;;;;3.58;2.05;;;16.40;61.70;;;;;;5094479;28;20173;-37
2021/05/04 10:20:59;;;;;;;4.88;2.03;;;16.20;60.70;;;;;;5094490;28;20024;-36
2021/05/04 10:23:27;;;;;;;4.07;2.03;;;16.30;61.60;;;;;;5094130;28;20028;-37
2021/05/04 10:26:19;;;;;;;8.73;2.00;;;16.40;61.00;;;;;;5094323;28;20035;-36
2021/05/04 10:28:52;;;;;;;1.77;1.52;;;16.40;59.80;;;;;;5089255;28;20047;-36
2021/05/04 10:31:19;;;;;;;4.85;1.70;;;16.40;60.60;;;;;;5084952;28;20499;-36
2021/05/04 10:33:45;;;;;;;4.03;2.10;;;16.50;60.80;;;;;;5070666;28;20775;-37
2021/05/04 10:36:31;;;;;;;4.35;1.58;;;16.70;60.00;;;;;;5073795;28;20074;-37
2021/05/04 10:38:57;;;;;;;1.67;1.58;;;17.00;59.00;;;;;;5073471;28;20028;-37
2021/05/04 10:41:23;;;;;;;2.67;1.65;;;17.20;58.40;;;;;;5073795;28;20028;-36
2021/05/04 10:44:07;;;;;;;2.50;1.58;;;17.10;58.40;;;;;;5072726;28;20036;-37
2021/05/04 10:46:39;;;;;;;3.38;1.63;;;17.20;57.70;;;;;;5073357;28;20025;-37
2021/05/04 10:49:06;;;;;;;6.18;1.55;;;17.20;56.90;;;;;;5065827;28;20021;-36
2021/05/04 10:51:48;;;;;;;10.65;1.50;;;17.30;57.70;;;;;;5072191;28;20157;-36
2021/05/04 10:54:19;;;;;;;3.10;1.38;;;17.50;55.30;;;;;;5093754;28;20320;-36
2021/05/04 10:57:06;;;;;;;1.95;1.60;;;17.60;56.00;;;;;;5092617;28;20060;-37
2021/05/04 10:59:37;;;;;;;3.00;1.23;;;17.60;55.20;;;;;;5093186;28;20510;-36
2021/05/04 11:02:22;;;;;;;1.67;1.35;;;17.70;55.90;;;;;;5093136;28;20035;-37
2021/05/04 11:04:48;;;;;;;2.03;1.80;;;17.70;54.80;;;;;;5083206;28;20055;-36
2021/05/04 11:07:52;;;;;;;2.30;1.67;;;17.60;54.70;;;;;;5072908;28;20021;-36
2021/05/04 11:10:18;;;;;;;3.20;1.55;;;17.70;54.80;;;;;;5055202;28;20031;-37
2021/05/04 11:12:43;;;;;;;4.15;1.50;;;17.80;55.20;;;;;;5072088;28;20024;-37
2021/05/04 11:15:32;;;;;;;2.80;1.60;;;17.90;54.70;;;;;;5073067;28;20029;-37
2021/05/04 11:17:57;;;;;;;2.63;1.95;;;18.10;53.20;;;;;;5072835;28;20072;-37
2021/05/04 11:20:31;;;;;;;4.22;1.45;;;18.10;53.80;;;;;;5073092;28;20483;-37
2021/05/04 11:22:59;;;;;;;6.43;1.70;;;18.10;53.70;;;;;;5072707;28;20483;-37
2021/05/04 11:25:33;;;;;;;3.97;1.75;;;18.20;54.30;;;;;;5073139;28;20052;-37
2021/05/04 11:27:59;;;;;;;7.53;1.55;;;18.20;53.30;;;;;;5071791;28;20035;-36
2021/05/04 11:30:36;;;;;;;2.65;1.45;;;18.20;53.70;;;;;;5072067;28;20411;-37
2021/05/04 11:33:30;;;;;;;2.67;1.50;;;18.30;54.30;;;;;;5072712;28;20030;-37
2021/05/04 11:35:58;;;;;;;2.90;1.30;;;18.30;53.20;;;;;;5072695;28;20028;-37
2021/05/04 11:38:25;;;;;;;4.40;1.23;;;18.30;54.00;;;;;;5072693;28;20059;-37
2021/05/04 11:40:53;;;;;;;5.97;1.23;;;18.20;53.80;;;;;;5072485;28;20025;-37
2021/05/04 11:43:20;;;;;;;5.63;1.63;;;18.00;53.90;;;;;;5071840;28;20028;-37
2021/05/04 11:45:47;;;;;;;6.38;1.58;;;17.80;54.30;;;;;;5072486;28;20416;-37
2021/05/04 11:48:15;;;;;;;2.63;1.08;;;17.70;54.00;;;;;;5072482;28;20158;-37
2021/05/04 11:50:43;;;;;;;6.13;1.30;;;17.50;54.30;;;;;;5074470;28;20504;-36
2021/05/04 11:53:10;;;;;;;3.10;0.95;;;17.50;55.00;;;;;;5092558;28;20055;-36
2021/05/04 11:55:41;;;;;;;4.45;1.00;;;17.40;55.30;;;;;;5092626;28;20070;-36
2021/05/04 12:00:38;;;;;;;3.50;1.17;;;17.30;54.90;;;;;;5050875;28;20048;-37
2021/05/04 12:03:09;;;;;;;5.43;1.35;;;17.30;55.20;;;;;;5052291;28;20033;-37
2021/05/04 12:05:36;;;;;;;1.40;1.00;;;17.40;54.90;;;;;;5054690;28;20472;-37
2021/05/04 12:08:03;;;;;;;1.05;0.90;;;17.60;55.10;;;;;;5052260;28;20108;-37
2021/05/04 12:10:36;;;;;;;2.55;1.10;;;17.80;54.80;;;;;;5052235;28;20052;-37
2021/05/04 12:13:05;;;;;;;2.33;1.05;;;17.80;54.50;;;;;;5050487;28;20033;-37
2021/05/04 12:15:33;;;;;;;3.28;1.35;;;17.80;54.60;;;;;;5052199;28;20419;-37
2021/05/04 12:18:03;;;;;;;5.18;1.27;;;17.70;54.60;;;;;;5052023;28;20036;-37
2021/05/04 12:20:39;;;;;;;5.50;1.50;;;17.50;53.80;;;;;;5052459;28;20108;-37
2021/05/04 12:23:06;;;;;;;2.90;0.90;;;17.40;54.10;;;;;;5052407;28;20032;-37
2021/05/04 12:25:41;;;;;;;5.80;1.15;;;17.50;55.00;;;;;;5052321;28;20025;-37
2021/05/04 12:28:15;;;;;;;4.88;1.27;;;17.30;55.00;;;;;;5051620;28;20375;-38
2021/05/04 12:30:41;;;;;;;1.65;1.20;;;17.30;55.10;;;;;;5051969;28;20505;-38
2021/05/04 12:33:07;;;;;;;3.03;1.40;;;17.30;55.20;;;;;;5052304;28;20096;-37
2021/05/04 12:35:36;;;;;;;2.90;1.17;;;17.40;55.50;;;;;;5052282;28;20024;-38
2021/05/04 12:38:04;;;;;;;3.65;1.10;;;17.40;55.20;;;;;;5049056;28;20040;-37
2021/05/04 12:40:30;;;;;;;3.40;0.90;;;17.40;55.50;;;;;;5032218;28;20028;-37
2021/05/04 12:43:14;;;;;;;1.27;1.10;;;17.30;55.60;;;;;;5031121;28;20104;-37
2021/05/04 12:46:07;;;;;;;1.40;1.10;;;17.20;55.60;;;;;;5032277;28;20030;-39
2021/05/04 12:48:34;;;;;;;3.80;1.23;;;17.20;55.70;;;;;;5035212;28;20025;-37
2021/05/04 12:51:07;;;;;;;7.53;0.93;;;17.40;55.70;;;;;;5047000;28;20018;-38
2021/05/04 12:53:35;;;;;;;3.13;0.93;;;17.60;55.50;;;;;;5030670;28;20342;-37
2021/05/04 12:56:13;;;;;;;1.63;0.90;;;17.80;55.40;;;;;;5031968;28;20018;-38
2021/05/04 12:59:06;;;;;;;2.58;1.20;;;17.90;55.00;;;;;;5031034;28;20029;-38
2021/05/04 13:01:43;;;;;;;1.55;0.98;;;17.90;54.80;;;;;;5032235;28;20040;-38
2021/05/04 13:04:23;;;;;;;1.33;1.00;;;17.80;54.40;;;;;;5031829;28;20040;-38
2021/05/04 13:06:52;;;;;;;4.65;1.23;;;17.90;54.50;;;;;;5031933;28;20496;-38
2021/05/04 13:29:30;;;;;;;1.88;0.80;;;17.70;53.90;;;;;;5035010;28;20072;-37